This is the latest recevied weather packets stored in our database for station/object WB6ANP. If no packets are shown the sender has not sent any weather packets the latest 1 day(s).
| Time | Temp. | Humidity | Pressure | Rain* | Wind** | Luminosity | Snow |
|---|---|---|---|---|---|---|---|
| 1778020868 | 27.22° C | 52% | 1005.1 hPa | 0 mm | 1.79 m/s, 115° | 296 W/m² | - |
| 1778020565 | 27.22° C | 53% | 1005.1 hPa | 0 mm | 0.89 m/s, 357° | 547 W/m² | - |
| 1778020261 | 27.22° C | 53% | 1004.8 hPa | 0 mm | 2.68 m/s, 322° | 344 W/m² | - |
| 1778019958 | 27.78° C | 53% | 1004.6 hPa | 0 mm | 0.89 m/s, 26° | 208 W/m² | - |
| 1778019654 | 28.33° C | 53% | 1004.5 hPa | 0 mm | 3.58 m/s, 2° | 545 W/m² | - |
| 1778019351 | 28.89° C | 51% | 1004.6 hPa | 0 mm | 3.13 m/s, 338° | 388 W/m² | - |
| 1778019047 | 28.89° C | 51% | 1004.7 hPa | 0 mm | 1.79 m/s, 68° | 394 W/m² | - |
| 1778018745 | 28.89° C | 51% | 1004.4 hPa | 0 mm | 1.34 m/s, 18° | 561 W/m² | - |
| 1778018443 | 28.89° C | 49% | 1004.4 hPa | 0 mm | 0.89 m/s, 25° | 263 W/m² | - |
| 1778018141 | 29.44° C | 48% | 1004.4 hPa | 0 mm | 2.68 m/s, 8° | 281 W/m² | - |
| 1778017838 | 30° C | 44% | 1004.6 hPa | 0 mm | 3.58 m/s, 312° | 285 W/m² | - |
| 1778017536 | 30.56° C | 42% | 1004.6 hPa | 0 mm | 1.34 m/s, 334° | 569 W/m² | - |
| 1778017232 | 31.67° C | 41% | 1004.5 hPa | 0 mm | 1.34 m/s, 20° | 588 W/m² | - |
| 1778016930 | 31.11° C | 40% | 1004.3 hPa | 0 mm | 0.89 m/s, 37° | 701 W/m² | - |
| 1778016626 | 31.11° C | 39% | 1004.6 hPa | 0 mm | 2.68 m/s, 302° | 624 W/m² | - |
| 1778016323 | 31.11° C | 38% | 1004.7 hPa | 0 mm | 2.68 m/s, 326° | 683 W/m² | - |
| 1778016020 | 31.11° C | 40% | 1004.6 hPa | 0 mm | 0.45 m/s, 113° | 751 W/m² | - |
| 1778015717 | 31.67° C | 38% | 1004.7 hPa | 0 mm | 2.68 m/s, 18° | 658 W/m² | - |
| 1778015414 | 31.67° C | 38% | 1004.5 hPa | 0 mm | 3.13 m/s, 36° | 771 W/m² | - |
| 1778015111 | 31.67° C | 41% | 1004.8 hPa | 0 mm | 0.89 m/s, 325° | 720 W/m² | - |
| 1778014808 | 31.67° C | 40% | 1004.6 hPa | 0 mm | 0.89 m/s, 341° | 726 W/m² | - |
| 1778014506 | 31.11° C | 42% | 1004.3 hPa | 0 mm | 0.89 m/s, 70° | 709 W/m² | - |
| 1778014203 | 31.67° C | 41% | 1004.7 hPa | 0 mm | 5.81 m/s, 338° | 666 W/m² | - |
| 1778013900 | 31.67° C | 44% | 1004.4 hPa | 0 mm | 1.79 m/s, 278° | 739 W/m² | - |
| 1778013597 | 31.11° C | 42% | 1004.6 hPa | 0 mm | 1.79 m/s, 304° | 641 W/m² | - |
* Rain latest hour (hover to see other rain measurements)
** Current wind speed in m/s (hover to see current wind gust speed)